createdAt,value
2019-01-18T00:01:58.185Z,4.73
2019-01-18T00:04:05.941Z,6.70
2019-01-18T00:06:10.902Z,4.30
2019-01-18T00:08:16.316Z,6.13
2019-01-18T00:10:21.046Z,5.87
2019-01-18T00:12:28.071Z,4.50
2019-01-18T00:14:32.877Z,6.90
2019-01-18T00:16:37.651Z,5.37
2019-01-18T00:18:42.475Z,7.83
2019-01-18T00:20:48.076Z,7.47
2019-01-18T00:22:52.931Z,4.93
2019-01-18T00:24:57.677Z,6.13
2019-01-18T00:27:06.311Z,5.27
2019-01-18T00:29:15.690Z,6.47
2019-01-18T00:31:20.761Z,4.20
2019-01-18T00:33:25.808Z,5.67
2019-01-18T00:35:30.495Z,6.70
2019-01-18T00:37:36.496Z,4.30
2019-01-18T00:39:41.502Z,4.93
2019-01-18T00:41:49.043Z,4.43
2019-01-18T00:43:56.550Z,4.80
2019-01-18T00:46:03.091Z,5.40
2019-01-18T00:48:08.197Z,5.53
2019-01-18T00:50:14.394Z,3.50
2019-01-18T00:52:28.376Z,4.83
2019-01-18T00:54:33.128Z,6.27
2019-01-18T00:56:37.844Z,4.10
2019-01-18T00:58:43.322Z,5.13
2019-01-18T01:00:48.214Z,6.03
2019-01-18T01:02:53.036Z,4.93
2019-01-18T01:04:57.892Z,5.27
2019-01-18T01:07:04.540Z,5.73
2019-01-18T01:09:09.598Z,3.37
2019-01-18T01:11:14.720Z,7.73
2019-01-18T01:13:19.901Z,5.87
2019-01-18T01:15:30.465Z,7.13
2019-01-18T01:17:38.715Z,6.73
2019-01-18T01:19:43.727Z,6.80
2019-01-18T01:21:48.536Z,5.50
2019-01-18T01:23:53.577Z,6.00
2019-01-18T01:25:59.977Z,7.53
2019-01-18T01:28:05.760Z,4.73
2019-01-18T01:30:30.641Z,6.23
2019-01-18T01:32:35.420Z,6.13
2019-01-18T01:34:40.257Z,6.57
2019-01-18T01:36:46.331Z,7.17
2019-01-18T01:38:52.283Z,8.20
2019-01-18T01:40:57.314Z,4.30
2019-01-18T01:43:04.536Z,4.53
2019-01-18T01:45:12.996Z,8.80
2019-01-18T01:47:18.875Z,5.00
2019-01-18T01:49:23.932Z,4.23
2019-01-18T01:51:28.602Z,6.47
2019-01-18T01:53:33.337Z,4.77
2019-01-18T01:55:38.078Z,7.23
2019-01-18T01:57:42.791Z,6.43
2019-01-18T01:59:49.999Z,6.90
2019-01-18T02:01:54.210Z,5.70
2019-01-18T02:03:58.958Z,5.87
2019-01-18T02:06:03.822Z,4.50
2019-01-18T02:08:08.964Z,5.97
2019-01-18T02:10:15.883Z,7.43
2019-01-18T02:12:20.618Z,7.90
2019-01-18T02:14:25.632Z,5.37
2019-01-18T02:16:30.351Z,8.10
2019-01-18T02:18:35.072Z,7.07
2019-01-18T02:20:39.788Z,4.50
2019-01-18T02:22:44.525Z,3.70
2019-01-18T02:24:50.154Z,7.60
2019-01-18T02:26:56.243Z,6.43
2019-01-18T02:29:00.972Z,5.60
2019-01-18T02:31:06.328Z,5.43
2019-01-18T02:33:11.486Z,3.53
2019-01-18T02:35:16.484Z,9.30
2019-01-18T02:37:22.785Z,4.37
2019-01-18T02:39:27.835Z,6.47
2019-01-18T02:41:32.650Z,7.30
2019-01-18T02:43:37.425Z,5.70
2019-01-18T02:45:42.162Z,6.63
2019-01-18T02:47:50.314Z,7.70
2019-01-18T02:49:56.142Z,6.60
2019-01-18T02:52:01.119Z,6.20
2019-01-18T02:54:05.826Z,7.50
2019-01-18T02:56:10.649Z,4.97
2019-01-18T02:58:17.314Z,7.17
2019-01-18T03:00:26.829Z,5.43
2019-01-18T03:02:31.511Z,5.17
2019-01-18T03:04:36.619Z,8.37
2019-01-18T03:06:41.352Z,7.57
2019-01-18T03:08:46.108Z,5.77
2019-01-18T03:10:53.084Z,7.17
2019-01-18T03:12:57.762Z,8.40
2019-01-18T03:15:04.001Z,7.00
2019-01-18T03:17:09.169Z,7.27
2019-01-18T03:19:13.908Z,9.93
2019-01-18T03:21:18.895Z,5.30
2019-01-18T03:23:24.063Z,5.03
2019-01-18T03:25:29.849Z,6.43
2019-01-18T03:27:35.498Z,4.73
2019-01-18T03:29:42.316Z,6.87
2019-01-18T03:31:47.069Z,10.33
2019-01-18T03:33:51.781Z,7.33
2019-01-18T03:35:56.806Z,6.43
2019-01-18T03:38:01.404Z,6.10
2019-01-18T03:40:06.929Z,6.87
2019-01-18T03:42:11.936Z,4.90
2019-01-18T03:44:16.703Z,7.63
2019-01-18T03:46:21.430Z,6.77
2019-01-18T03:48:26.025Z,5.87
2019-01-18T03:50:30.640Z,6.27
2019-01-18T03:52:37.024Z,5.70
2019-01-18T03:54:42.069Z,10.70
2019-01-18T03:56:46.831Z,7.27
2019-01-18T03:58:51.617Z,7.73
2019-01-18T04:00:58.709Z,6.90
2019-01-18T04:03:03.458Z,7.03
2019-01-18T04:05:08.958Z,6.27
2019-01-18T04:07:14.010Z,8.17
2019-01-18T04:09:18.750Z,6.23
2019-01-18T04:11:23.579Z,7.53
2019-01-18T04:13:28.375Z,5.73
2019-01-18T04:15:33.204Z,7.53
2019-01-18T04:17:41.930Z,7.63
2019-01-18T04:19:47.083Z,6.00
2019-01-18T04:21:54.902Z,7.67
2019-01-18T04:24:00.394Z,5.57
2019-01-18T04:26:07.184Z,5.50
2019-01-18T04:28:12.754Z,6.10
2019-01-18T04:30:22.513Z,5.67
2019-01-18T04:32:28.621Z,8.97
2019-01-18T04:34:39.441Z,5.57
2019-01-18T04:36:45.179Z,6.97
2019-01-18T04:38:52.098Z,7.60
2019-01-18T04:40:58.677Z,5.50
2019-01-18T04:43:03.945Z,6.57
2019-01-18T04:45:09.251Z,6.33
2019-01-18T04:47:14.145Z,6.80
2019-01-18T04:49:18.989Z,8.17
2019-01-18T04:51:24.450Z,5.17
2019-01-18T04:53:29.499Z,8.00
2019-01-18T04:55:34.285Z,7.53
2019-01-18T04:57:45.586Z,7.70
2019-01-18T04:59:51.220Z,6.57
2019-01-18T05:01:56.502Z,10.43
2019-01-18T05:04:01.363Z,5.80
2019-01-18T05:06:06.262Z,6.50
2019-01-18T05:08:11.079Z,8.00
2019-01-18T05:10:17.056Z,8.80
2019-01-18T05:12:24.428Z,5.40
2019-01-18T05:14:29.654Z,5.20
2019-01-18T05:16:35.321Z,6.40
2019-01-18T05:18:40.134Z,8.43
2019-01-18T05:20:44.969Z,7.07
2019-01-18T05:22:51.460Z,8.03
2019-01-18T05:24:56.241Z,6.07
2019-01-18T05:27:03.971Z,7.47
2019-01-18T05:29:08.948Z,8.20
2019-01-18T05:31:13.669Z,7.30
2019-01-18T05:33:18.661Z,7.70
2019-01-18T05:35:24.867Z,10.63
2019-01-18T05:37:30.938Z,9.33
2019-01-18T05:39:38.943Z,8.77
2019-01-18T05:41:43.642Z,6.90
2019-01-18T05:43:48.477Z,6.70
2019-01-18T05:45:53.354Z,5.67
2019-01-18T05:47:59.616Z,7.40
2019-01-18T05:50:04.460Z,6.87
2019-01-18T05:52:15.511Z,13.87
2019-01-18T05:54:22.882Z,10.07
2019-01-18T05:56:27.876Z,9.47
2019-01-18T05:58:34.271Z,8.20
2019-01-18T06:01:01.328Z,10.40
2019-01-18T06:03:07.204Z,7.83
2019-01-18T06:05:13.970Z,9.00
2019-01-18T06:07:19.148Z,9.93
2019-01-18T06:09:25.090Z,8.93
2019-01-18T06:11:29.848Z,9.33
2019-01-18T06:13:35.031Z,12.20
2019-01-18T06:15:40.540Z,11.77
2019-01-18T06:17:47.735Z,9.90
2019-01-18T06:19:58.051Z,11.20
2019-01-18T06:22:02.798Z,12.07
2019-01-18T06:24:08.866Z,10.60
2019-01-18T06:26:13.825Z,13.13
2019-01-18T06:28:18.594Z,9.83
2019-01-18T06:30:30.351Z,8.20
2019-01-18T06:32:37.540Z,9.57
2019-01-18T06:34:42.295Z,8.50
2019-01-18T06:37:03.027Z,12.73
2019-01-18T06:39:13.517Z,8.53
2019-01-18T06:41:40.015Z,8.57
2019-01-18T06:43:48.196Z,13.10
2019-01-18T06:45:53.458Z,9.23
2019-01-18T06:47:58.259Z,10.73
2019-01-18T06:50:06.029Z,9.20
2019-01-18T06:52:12.106Z,8.20
2019-01-18T06:54:18.728Z,13.70
2019-01-18T06:56:24.024Z,10.20
2019-01-18T06:58:33.321Z,10.90
2019-01-18T07:00:41.468Z,11.40
2019-01-18T07:02:46.223Z,12.03
2019-01-18T07:04:55.539Z,10.63
2019-01-18T07:07:00.215Z,7.83
2019-01-18T07:09:08.318Z,9.17
2019-01-18T07:11:13.057Z,10.30
2019-01-18T07:13:17.855Z,10.13
2019-01-18T07:15:24.665Z,12.57
2019-01-18T07:17:31.683Z,11.73
2019-01-18T07:19:36.586Z,10.50
2019-01-18T07:21:41.346Z,9.97
2019-01-18T07:23:46.867Z,12.00
2019-01-18T07:25:52.555Z,11.30
2019-01-18T07:27:57.385Z,14.07
2019-01-18T07:30:07.128Z,10.27
2019-01-18T07:32:14.736Z,10.07
2019-01-18T07:34:22.268Z,14.50
2019-01-18T07:36:27.006Z,13.23
2019-01-18T07:38:31.766Z,11.17
2019-01-18T07:40:38.686Z,10.47
2019-01-18T07:42:43.728Z,13.07
2019-01-18T07:44:48.350Z,15.03
2019-01-18T07:47:10.478Z,11.00
2019-01-18T07:49:17.626Z,15.17
2019-01-18T07:51:26.972Z,14.43
2019-01-18T07:53:32.192Z,13.67
2019-01-18T07:55:37.374Z,11.87
2019-01-18T07:57:42.191Z,10.13
2019-01-18T07:59:53.942Z,10.23
2019-01-18T08:02:04.748Z,12.67
2019-01-18T08:04:11.358Z,15.63
2019-01-18T08:06:19.023Z,15.47
2019-01-18T08:08:27.528Z,10.57
2019-01-18T08:10:36.007Z,9.00
2019-01-18T08:12:54.124Z,14.10
2019-01-18T08:15:16.455Z,14.43
2019-01-18T08:17:28.279Z,13.17
2019-01-18T08:19:34.112Z,10.87
2019-01-18T08:21:49.696Z,13.00
2019-01-18T08:23:58.051Z,11.53
2019-01-18T08:26:04.346Z,11.73
2019-01-18T08:28:19.342Z,12.00
2019-01-18T08:30:28.763Z,11.83
2019-01-18T08:32:49.110Z,9.80
2019-01-18T08:34:59.678Z,14.53
2019-01-18T08:37:07.728Z,12.93
2019-01-18T08:39:13.448Z,13.97
2019-01-18T08:41:25.287Z,14.80
2019-01-18T08:43:38.827Z,12.00
2019-01-18T08:45:54.726Z,14.67
2019-01-18T08:48:07.210Z,14.17
2019-01-18T08:50:32.501Z,14.77
2019-01-18T08:52:37.322Z,13.63
2019-01-18T08:54:42.576Z,16.50
2019-01-18T08:56:49.096Z,15.17
2019-01-18T08:58:55.893Z,11.33
2019-01-18T09:01:04.143Z,8.90
2019-01-18T09:03:23.754Z,13.40
2019-01-18T09:05:34.084Z,9.83
2019-01-18T09:07:39.667Z,10.47
2019-01-18T09:09:44.550Z,39.50
2019-01-18T09:11:49.381Z,8.40
2019-01-18T09:13:59.843Z,10.00
2019-01-18T09:16:02.939Z,9.20
2019-01-18T09:18:11.368Z,7.63
2019-01-18T09:20:21.787Z,8.70
2019-01-18T09:22:27.798Z,11.93
2019-01-18T09:24:32.677Z,7.77
2019-01-18T09:26:41.827Z,8.73
2019-01-18T09:28:46.611Z,10.10
2019-01-18T09:30:56.251Z,10.40
2019-01-18T09:33:06.355Z,10.00
2019-01-18T09:35:12.916Z,10.90
2019-01-18T09:37:34.545Z,10.73
2019-01-18T09:39:40.937Z,12.60
2019-01-18T09:41:45.740Z,11.03
2019-01-18T09:43:51.115Z,7.97
2019-01-18T09:46:07.533Z,11.07
2019-01-18T09:48:16.999Z,13.60
2019-01-18T09:50:32.434Z,8.27
2019-01-18T09:52:37.458Z,9.37
2019-01-18T09:54:45.912Z,9.13
2019-01-18T09:56:59.496Z,8.53
2019-01-18T09:59:12.428Z,8.57
2019-01-18T10:01:23.333Z,7.57
2019-01-18T10:03:31.192Z,6.87
2019-01-18T10:05:37.509Z,6.27
2019-01-18T10:07:42.489Z,5.07
2019-01-18T10:09:47.348Z,6.90
2019-01-18T10:11:59.552Z,5.97
2019-01-18T10:14:09.870Z,5.03
2019-01-18T10:16:17.508Z,4.77
2019-01-18T10:18:23.582Z,5.33
2019-01-18T10:20:28.592Z,6.13
2019-01-18T10:22:35.574Z,4.67
2019-01-18T10:24:44.394Z,6.50
2019-01-18T10:26:59.008Z,6.47
2019-01-18T10:29:12.657Z,4.73
2019-01-18T10:31:25.990Z,5.30
2019-01-18T10:33:31.206Z,5.27
2019-01-18T10:35:36.041Z,4.50
2019-01-18T10:37:42.928Z,4.53
2019-01-18T10:39:52.829Z,6.57
2019-01-18T10:42:14.110Z,5.20
2019-01-18T10:44:27.536Z,3.83
2019-01-18T10:49:31.329Z,5.77
2019-01-18T10:51:41.649Z,4.17
2019-01-18T10:53:49.007Z,11.10
2019-01-18T10:55:54.405Z,7.90
2019-01-18T10:57:59.314Z,8.67
2019-01-18T11:00:29.108Z,3.93
2019-01-18T11:02:35.047Z,4.40
2019-01-18T11:04:39.885Z,5.60
2019-01-18T11:06:45.120Z,4.43
2019-01-18T11:08:51.572Z,5.37
2019-01-18T11:10:58.076Z,5.93
2019-01-18T11:13:03.252Z,8.13
2019-01-18T11:15:18.027Z,6.47
2019-01-18T11:17:25.155Z,7.97
2019-01-18T11:19:30.557Z,5.40
2019-01-18T11:21:35.998Z,7.70
2019-01-18T11:23:44.452Z,6.03
2019-01-18T11:25:49.219Z,5.80
2019-01-18T11:27:55.290Z,7.33
2019-01-18T11:30:00.391Z,6.30
2019-01-18T11:32:13.700Z,6.87
2019-01-18T11:34:29.660Z,6.37
2019-01-18T11:36:34.559Z,8.07
2019-01-18T11:38:43.212Z,8.63
2019-01-18T11:40:52.645Z,5.10
2019-01-18T11:42:57.733Z,7.50
2019-01-18T11:45:06.947Z,6.97
2019-01-18T11:47:24.983Z,6.17
2019-01-18T11:49:34.557Z,5.90
2019-01-18T11:51:39.444Z,5.10
2019-01-18T11:53:44.607Z,7.90
2019-01-18T11:55:52.854Z,6.77
2019-01-18T11:57:57.474Z,8.10
2019-01-18T12:00:26.353Z,6.50
2019-01-18T12:02:34.901Z,7.67
2019-01-18T12:11:21.137Z,7.57
2019-01-18T12:13:30.422Z,6.30
2019-01-18T12:15:36.931Z,5.37
2019-01-18T12:17:41.976Z,6.63
2019-01-18T12:19:50.669Z,5.80
2019-01-18T12:21:56.887Z,6.67
2019-01-18T12:24:02.851Z,6.00
2019-01-18T12:26:12.427Z,6.63
2019-01-18T12:28:22.562Z,6.07
2019-01-18T12:30:38.937Z,5.83
2019-01-18T12:35:13.446Z,8.17
2019-01-18T12:37:37.073Z,6.50
2019-01-18T12:39:42.135Z,7.03
2019-01-18T12:41:47.064Z,7.43
2019-01-18T12:43:56.598Z,7.37
2019-01-18T12:46:05.577Z,8.50
2019-01-18T12:48:13.638Z,6.30
2019-01-18T12:50:34.184Z,7.37
2019-01-18T12:52:39.842Z,5.40
2019-01-18T12:54:50.618Z,6.03
2019-01-18T12:57:02.716Z,8.10
2019-01-18T12:59:07.459Z,6.80
2019-01-18T13:01:12.781Z,6.60
2019-01-18T13:03:32.985Z,5.73
2019-01-18T13:05:52.611Z,5.87
2019-01-18T13:07:57.484Z,7.50
2019-01-18T13:10:11.683Z,5.13
2019-01-18T13:12:17.032Z,6.07
2019-01-18T13:14:28.722Z,4.97
2019-01-18T13:16:47.913Z,4.40
2019-01-18T13:19:16.297Z,5.70
2019-01-18T13:21:21.506Z,7.17
2019-01-18T13:23:32.102Z,4.23
2019-01-18T13:25:53.973Z,5.13
2019-01-18T13:28:02.983Z,5.20
2019-01-18T13:30:15.555Z,5.77
2019-01-18T13:32:20.401Z,5.17
2019-01-18T13:34:26.521Z,5.83
2019-01-18T13:36:31.661Z,5.23
2019-01-18T13:39:01.013Z,5.43
2019-01-18T13:41:08.107Z,5.10
2019-01-18T13:43:14.376Z,4.83
2019-01-18T13:45:24.383Z,6.17
2019-01-18T13:47:31.198Z,4.70
2019-01-18T13:49:36.164Z,5.33
2019-01-18T13:51:51.431Z,4.43
2019-01-18T13:53:58.682Z,5.67
2019-01-18T13:56:05.211Z,4.87
2019-01-18T13:58:12.422Z,4.47
2019-01-18T14:00:18.058Z,5.00
2019-01-18T14:02:23.218Z,5.20
2019-01-18T14:04:31.603Z,5.43
2019-01-18T14:06:37.387Z,7.50
2019-01-18T14:08:45.671Z,8.30
2019-01-18T14:10:50.596Z,6.23
2019-01-18T14:12:56.958Z,8.03
2019-01-18T14:15:06.438Z,6.57
2019-01-18T14:17:11.447Z,5.00
2019-01-18T14:19:19.647Z,6.83
2019-01-18T14:21:49.506Z,5.00
2019-01-18T14:23:54.342Z,7.63
2019-01-18T14:26:02.459Z,6.07
2019-01-18T14:28:11.039Z,7.10
2019-01-18T14:30:24.684Z,6.87
2019-01-18T14:32:47.187Z,6.77
2019-01-18T14:34:53.314Z,7.03
2019-01-18T14:37:07.262Z,8.13
2019-01-18T14:39:13.920Z,6.30
2019-01-18T14:41:30.949Z,7.80
2019-01-18T14:43:31.829Z,7.97
2019-01-18T14:45:44.401Z,8.73
2019-01-18T14:47:56.922Z,10.53
2019-01-18T14:50:07.412Z,7.73
2019-01-18T14:52:19.337Z,9.17
2019-01-18T14:54:26.884Z,9.53
2019-01-18T14:56:34.576Z,9.87
2019-01-18T14:58:51.372Z,9.67
2019-01-18T15:01:08.301Z,7.60
2019-01-18T15:03:20.857Z,9.90
2019-01-18T15:05:28.328Z,10.83
2019-01-18T15:08:00.783Z,12.63
2019-01-18T15:10:05.234Z,15.53
2019-01-18T15:12:12.409Z,7.67
2019-01-18T15:14:21.291Z,8.00
2019-01-18T15:16:31.136Z,9.23
2019-01-18T15:18:39.338Z,9.93
2019-01-18T15:20:48.550Z,12.00
2019-01-18T15:22:53.999Z,11.67
2019-01-18T15:25:06.439Z,12.27
2019-01-18T15:27:18.753Z,11.47
2019-01-18T15:29:46.287Z,11.47
2019-01-18T15:31:56.272Z,12.27
2019-01-18T15:34:01.308Z,11.70
2019-01-18T15:36:12.171Z,9.90
2019-01-18T15:38:17.600Z,9.00
2019-01-18T15:40:29.418Z,12.63
2019-01-18T15:42:38.180Z,8.47
2019-01-18T15:44:44.513Z,10.70
2019-01-18T15:46:53.699Z,9.83
2019-01-18T15:49:06.480Z,12.83
2019-01-18T15:51:33.113Z,8.83
2019-01-18T15:53:47.335Z,15.73
2019-01-18T15:55:58.590Z,13.60
2019-01-18T15:58:11.092Z,10.17
2019-01-18T16:00:35.387Z,11.70
2019-01-18T16:02:43.429Z,11.90
2019-01-18T16:04:52.147Z,10.10
2019-01-18T16:06:58.357Z,11.13
2019-01-18T16:09:06.233Z,9.67
2019-01-18T16:11:15.832Z,8.60
2019-01-18T16:13:26.906Z,8.83
2019-01-18T16:15:45.094Z,10.57
2019-01-18T16:17:54.360Z,10.77
2019-01-18T16:20:09.842Z,14.20
2019-01-18T16:22:32.345Z,12.77
2019-01-18T16:24:46.789Z,11.03
2019-01-18T16:26:53.455Z,9.50
2019-01-18T16:28:59.289Z,10.37
2019-01-18T16:31:07.248Z,11.63
2019-01-18T16:33:13.797Z,10.17
2019-01-18T16:35:25.290Z,8.53
2019-01-18T16:37:32.691Z,7.27
2019-01-18T16:39:43.970Z,7.37
2019-01-18T16:41:53.333Z,10.27
2019-01-18T16:44:06.649Z,9.77
2019-01-18T16:46:12.552Z,13.87
2019-01-18T16:48:23.234Z,11.37
2019-01-18T16:50:31.343Z,12.93
2019-01-18T16:52:41.220Z,13.53
2019-01-18T16:54:48.206Z,10.37
2019-01-18T16:56:55.062Z,13.50
2019-01-18T16:59:00.808Z,10.63
2019-01-18T17:01:09.627Z,15.13
2019-01-18T17:03:20.682Z,10.83
2019-01-18T17:05:29.344Z,12.47
2019-01-18T17:07:35.533Z,10.00
2019-01-18T17:09:41.866Z,10.33
2019-01-18T17:11:47.490Z,12.03
2019-01-18T17:14:02.172Z,16.20
2019-01-18T17:16:10.562Z,14.57
2019-01-18T17:18:22.036Z,20.90
2019-01-18T17:20:39.100Z,16.43
2019-01-18T17:22:45.085Z,14.80
2019-01-18T17:24:50.929Z,16.90
2019-01-18T17:27:09.957Z,13.87
2019-01-18T17:29:20.750Z,14.17
2019-01-18T17:31:33.025Z,14.30
2019-01-18T17:33:40.939Z,12.67
2019-01-18T17:36:16.765Z,13.97
2019-01-18T17:38:59.488Z,10.83
2019-01-18T17:41:39.612Z,11.00
2019-01-18T17:44:38.263Z,14.87
2019-01-18T17:47:30.067Z,12.27
2019-01-18T17:50:31.783Z,14.67
2019-01-18T17:53:33.521Z,11.03
2019-01-18T17:56:31.682Z,13.87
2019-01-18T17:59:26.286Z,10.90
2019-01-18T18:02:13.074Z,14.57
2019-01-18T18:05:06.071Z,9.87
2019-01-18T18:08:10.599Z,13.37
2019-01-18T18:10:40.228Z,12.60
2019-01-18T18:13:36.470Z,11.57
2019-01-18T18:16:27.130Z,12.33
2019-01-18T18:19:07.886Z,15.17
2019-01-18T18:22:09.022Z,10.23
2019-01-18T18:24:38.772Z,12.13
2019-01-18T18:27:33.584Z,13.63
2019-01-18T18:30:25.335Z,11.83
2019-01-18T18:33:04.439Z,11.60
2019-01-18T18:35:42.356Z,11.70
2019-01-18T18:38:47.968Z,15.63
2019-01-18T18:41:37.643Z,11.53
2019-01-18T18:47:17.302Z,10.77
2019-01-18T18:50:22.272Z,10.67
2019-01-18T18:53:23.826Z,11.37
2019-01-18T18:55:55.853Z,9.80
2019-01-18T18:58:42.937Z,9.80
2019-01-18T19:01:30.632Z,10.83
2019-01-18T19:04:06.071Z,7.47
2019-01-18T19:07:03.385Z,8.63
2019-01-18T19:10:02.587Z,10.73
2019-01-18T19:13:00.587Z,10.13
2019-01-18T19:15:45.877Z,10.90
2019-01-18T19:18:45.265Z,12.33
2019-01-18T19:21:33.241Z,11.13
2019-01-18T19:24:05.468Z,9.97
2019-01-18T19:26:36.738Z,13.70
2019-01-18T19:29:20.523Z,11.37
2019-01-18T19:32:14.670Z,11.10
2019-01-18T19:35:03.236Z,13.07
2019-01-18T19:37:59.788Z,10.43
2019-01-18T19:40:52.379Z,9.70
2019-01-18T19:44:03.638Z,12.07
2019-01-18T19:46:35.290Z,9.93
2019-01-18T19:49:39.563Z,7.77
2019-01-18T19:52:03.869Z,14.03
2019-01-18T19:54:50.043Z,12.17
2019-01-18T19:57:08.995Z,10.30
2019-01-18T19:59:38.982Z,9.57
2019-01-18T20:02:20.221Z,9.00
2019-01-18T20:05:04.558Z,9.73
2019-01-18T20:07:49.026Z,10.60
2019-01-18T20:10:49.495Z,8.47
2019-01-18T20:13:38.321Z,11.43
2019-01-18T20:16:26.008Z,7.63
2019-01-18T20:19:18.963Z,10.73
2019-01-18T20:21:54.815Z,10.03
2019-01-18T20:24:41.994Z,11.57
2019-01-18T20:27:29.217Z,16.13
2019-01-18T20:30:29.126Z,8.70
2019-01-18T20:35:15.363Z,12.90
2019-01-18T20:37:46.590Z,12.67
2019-01-18T20:40:20.925Z,13.97
2019-01-18T20:43:16.327Z,13.67
2019-01-18T20:45:58.129Z,12.17
2019-01-18T20:48:39.995Z,12.57
2019-01-18T20:51:24.958Z,10.13
2019-01-18T20:54:23.746Z,10.97
2019-01-18T20:56:49.645Z,10.93
2019-01-18T20:59:39.526Z,12.43
2019-01-18T21:02:14.911Z,11.53
2019-01-18T21:04:59.460Z,12.20
2019-01-18T21:07:30.480Z,12.03
2019-01-18T21:09:53.427Z,13.43
2019-01-18T21:12:47.400Z,13.33
2019-01-18T21:15:27.019Z,9.83
2019-01-18T21:18:21.182Z,9.77
2019-01-18T21:21:11.511Z,11.37
2019-01-18T21:24:16.300Z,14.53
2019-01-18T21:26:58.309Z,11.63
2019-01-18T21:29:54.257Z,11.50
2019-01-18T21:32:43.745Z,10.37
2019-01-18T21:35:16.535Z,11.03
2019-01-18T21:37:44.202Z,11.83
2019-01-18T21:40:44.071Z,11.00
2019-01-18T21:43:59.085Z,12.83
2019-01-18T21:46:29.812Z,9.43
2019-01-18T21:49:15.403Z,12.50
2019-01-18T21:51:48.466Z,11.90
2019-01-18T21:54:11.277Z,11.27
2019-01-18T21:57:06.488Z,13.47
2019-01-18T22:00:07.993Z,11.30
2019-01-18T22:03:05.463Z,12.80
2019-01-18T22:05:50.380Z,11.43
2019-01-18T22:08:35.193Z,14.03
2019-01-18T22:11:21.253Z,9.93
2019-01-18T22:14:12.408Z,8.70
2019-01-18T22:16:59.018Z,11.23
2019-01-18T22:20:08.332Z,9.77
2019-01-18T22:23:02.067Z,8.97
2019-01-18T22:25:38.847Z,11.90
2019-01-18T22:28:25.291Z,10.40
2019-01-18T22:31:28.290Z,12.63
2019-01-18T22:33:51.088Z,10.23
2019-01-18T22:36:53.778Z,8.73
2019-01-18T22:39:29.427Z,9.07
2019-01-18T22:42:24.070Z,8.67
2019-01-18T22:44:52.119Z,10.13
2019-01-18T22:47:37.208Z,8.93
2019-01-18T22:50:00.342Z,13.80
2019-01-18T22:52:35.721Z,10.37
2019-01-18T22:55:09.856Z,10.33
2019-01-18T22:57:32.711Z,9.37
2019-01-18T23:00:01.739Z,9.20
2019-01-18T23:02:50.964Z,9.77
2019-01-18T23:05:29.214Z,10.60
2019-01-18T23:08:00.263Z,12.30
2019-01-18T23:10:28.062Z,10.23
2019-01-18T23:12:50.772Z,10.30
2019-01-18T23:15:31.950Z,10.37
2019-01-18T23:18:18.452Z,12.33
2019-01-18T23:21:10.324Z,8.83
2019-01-18T23:23:50.568Z,8.23
2019-01-18T23:27:03.441Z,8.43
2019-01-18T23:29:19.731Z,10.23
2019-01-18T23:31:53.349Z,11.00
2019-01-18T23:34:12.335Z,8.40
2019-01-18T23:36:31.314Z,7.30
2019-01-18T23:39:37.878Z,6.47
2019-01-18T23:42:08.968Z,9.70
2019-01-18T23:45:01.765Z,7.57
2019-01-18T23:47:56.900Z,8.07
2019-01-18T23:50:51.216Z,9.33
2019-01-18T23:53:44.450Z,10.47
2019-01-18T23:56:28.404Z,7.87
2019-01-18T23:59:10.793Z,6.27
